【JGC回数修行】目指せ亀タグ☆FIVE STAR 1250回!!

楽しみにしている回数修行旅行記のブログが少なかったので、自分で実体験して、皆にシェアしようと。そして、JGC 亀タグ&FIVE STAR獲得のための 搭乗1250回の記録

【BA修行#012】20200109_JTA567_OKA-MMY

2020年1月9日木曜日

JTA567 那覇-宮古

JTA 737-800...「07」

f:id:ozc1250tokyo:20200118010940j:image

-----------------
こちらも、事前予約時は、普通席の最前席にあたる「7A」を予約しました。
f:id:ozc1250tokyo:20200109003108p:image 

------------------

今朝、那覇空港✈️でチェックイン時に、

f:id:ozc1250tokyo:20200109155623j:image

クラスJへのアップグレード⤴️とともに、マイルをBAへ紐付けをお願いしました。そうすると、上手くいけばBAのティアポイントが貯まります😊😊

f:id:ozc1250tokyo:20200109162612j:image

先程、降機したゲートに戻ってきました笑笑

優先搭乗がはじまりました。しかし、スマホ充電中なので、今しばらくお待ち下さいね😅


f:id:ozc1250tokyo:20200109162623j:image

f:id:ozc1250tokyo:20200109162628j:image

JTAさんのB737-800の「7号機」です。お昼の宮古から、行程がおなじです笑笑

という事は、次のレグもまたお世話になります。


f:id:ozc1250tokyo:20200109162736j:image

f:id:ozc1250tokyo:20200109162730j:image

北の方には黒い雲に覆われていますねー、天気悪くなるのかなぁ…

ここで、実況値確認です。

METAR

01/09 16:00 ROAH 090700Z 36011KT 9999 FEW035 BKN045 19/11 Q1018 RMK 1CU035 6SC045 A3008=

北風で、曇天ですねー。でもフライトには問題なしです!

f:id:ozc1250tokyo:20200109163012j:image

機内照明は、青色です。ずぅーとつけっぱなし??
f:id:ozc1250tokyo:20200109163006j:image

整備さんのお見送りです。


f:id:ozc1250tokyo:20200109163829j:image

f:id:ozc1250tokyo:20200109163823j:image

離陸待ちは、3番目かな…前の機体の後をつけていきます。


f:id:ozc1250tokyo:20200109164200j:image

f:id:ozc1250tokyo:20200109164144j:image

f:id:ozc1250tokyo:20200109164155j:image

f:id:ozc1250tokyo:20200109164149j:image

離陸からの左旋回🛫です。太陽の光がきれいに海に反射し、レイラインを形成しています😊
f:id:ozc1250tokyo:20200109164309j:image

あっ、機内の照明の色が変わった…夕日の色かな?

f:id:ozc1250tokyo:20200109164326j:image

久しぶりのさんぴん茶の気がする。沖縄のさんぴん茶は濃い。本州のジャスミンティーとは違う笑笑


f:id:ozc1250tokyo:20200109164731j:image

f:id:ozc1250tokyo:20200109164737j:image

んー、雲だらけの雲海です。
f:id:ozc1250tokyo:20200109164939j:image

確かに、衛星の可視画像を見ても、沖縄や南西諸島には一面雲域が広がっている😅

冬型の気圧配置だからこんなものなのかな笑笑

f:id:ozc1250tokyo:20200109170216j:image

もうまもなく宮古島です。


f:id:ozc1250tokyo:20200109170420j:image

f:id:ozc1250tokyo:20200109170425j:image

宮古ブルー再びです。
f:id:ozc1250tokyo:20200109170517j:image

大橋。名前失念しました😭

f:id:ozc1250tokyo:20200109170725j:image

Landed at 1706JST

ひがさしています。

実況値確認です。

METAR

01/09 17:00 ROMY 090800Z 03008KT 9999 FEW033 20/12 Q1017 RMK 1CU033 A3006=

f:id:ozc1250tokyo:20200109171016j:image

おっ、再び機内照明の色が変わった❗️

f:id:ozc1250tokyo:20200109172749j:image

 

それでは、乗り継ぎ特典?を活かして、ゲートから制限区域内に入れてもらいます。

f:id:ozc1250tokyo:20200109172653j:image

売店で、「宮古牛🐂焼肉お弁当」まだ売っているかなぁ。

ではすぐに。

✈️

追伸

f:id:ozc1250tokyo:20200121011529j:image

第1弾修行で、BAのティアポイント480ポイントになりました。「Bronze」に昇格です❗️

以上